首页
METAR-TAF:

METAR-TAF

机场 :

厄洛斯機場

温得和克, 纳米比亚

纬度: 22-36-44S, 经度: 017-04-50E, 海拔: 1699米

当前天气观测

该预报发布于1小时和2分钟前的09:00 UTC
风速5节,风向
温度 19°C
湿度 9%
气压 1027 hPa
能见度10公里或以上
1500米以下无云,无积雨云

METAR: FYWE 200900Z 35005KT CAVOK 19/M15 Q1027

时间: 12:02 (10:02 UTC)

预报

该预报发布于2小时和2分钟前的08:00 UTC
预报有效从20日的 09点(UTC)到 20日的 18点(UTC)
风速3节,风向北转东北
能见度10公里或以上
1500米以下无云,无积雨云
成为
从 20日的 10点(UTC)到 20日的 12点(UTC)
风速12节,风向西转西北

TAF: FYWE 200800Z 2009/2018 02003KT CAVOK BECMG 2010/2012 29012KT

超过4000个机场的气象观测和天气预报(METAR&TAF报告)。

可查询的气象台以黄色和红色小点在地图上表示。

将鼠标移到小点上方,可查看气象台名称。

然后点击查看天气观测和预报。

如需切换地图:点击带黑十字的绿色按钮放大地图;点击带横线的绿色按钮缩小地图;或者点击绿色箭头查看邻近地区的地图。


METAR-TAF: